createdAt,value
2023-05-21T00:00:12.913Z,59.40
2023-05-21T00:02:40.288Z,59.10
2023-05-21T00:05:13.790Z,59.20
2023-05-21T00:07:41.630Z,59.90
2023-05-21T00:10:08.584Z,59.90
2023-05-21T00:12:35.479Z,60.10
2023-05-21T00:15:02.256Z,60.00
2023-05-21T00:17:29.078Z,60.10
2023-05-21T00:19:56.920Z,60.80
2023-05-21T00:22:24.166Z,60.20
2023-05-21T00:24:51.132Z,60.00
2023-05-21T00:27:17.950Z,60.40
2023-05-21T00:29:45.783Z,60.20
2023-05-21T00:32:12.837Z,59.90
2023-05-21T00:34:40.760Z,60.10
2023-05-21T00:37:10.076Z,60.60
2023-05-21T00:39:37.075Z,61.40
2023-05-21T00:42:04.094Z,61.50
2023-05-21T00:44:34.426Z,61.70
2023-05-21T00:47:02.220Z,61.50
2023-05-21T00:49:29.042Z,61.00
2023-05-21T00:51:56.037Z,61.20
2023-05-21T00:54:23.722Z,61.20
2023-05-21T00:56:51.191Z,61.40
2023-05-21T00:59:18.060Z,61.50
2023-05-21T01:01:45.741Z,61.10
2023-05-21T01:04:13.277Z,61.30
2023-05-21T01:06:40.096Z,62.10
2023-05-21T01:09:07.479Z,63.70
2023-05-21T01:11:39.276Z,63.10
2023-05-21T01:14:09.442Z,63.40
2023-05-21T01:16:40.989Z,63.20
2023-05-21T01:19:10.248Z,63.50
2023-05-21T01:21:41.391Z,64.40
2023-05-21T01:24:08.240Z,64.90
2023-05-21T01:26:38.639Z,64.30
2023-05-21T01:29:06.565Z,65.10
2023-05-21T01:31:42.349Z,65.50
2023-05-21T01:34:11.217Z,64.80
2023-05-21T01:36:43.657Z,65.90
2023-05-21T01:39:16.015Z,65.20
2023-05-21T01:41:44.952Z,65.40
2023-05-21T01:44:12.335Z,66.20
2023-05-21T01:46:40.392Z,65.30
2023-05-21T01:49:08.355Z,65.10
2023-05-21T01:51:35.873Z,65.60
2023-05-21T01:54:02.666Z,65.60
2023-05-21T01:56:29.444Z,66.40
2023-05-21T01:58:59.838Z,65.60
2023-05-21T02:01:27.521Z,66.40
2023-05-21T02:03:54.421Z,65.70
2023-05-21T02:06:21.502Z,66.30
2023-05-21T02:08:48.452Z,65.80
2023-05-21T02:11:15.214Z,66.30
2023-05-21T02:13:42.658Z,66.00
2023-05-21T02:16:14.808Z,66.00
2023-05-21T02:18:44.847Z,66.10
2023-05-21T02:21:11.843Z,67.80
2023-05-21T02:23:38.838Z,67.10
2023-05-21T02:26:05.906Z,66.70
2023-05-21T02:28:32.891Z,68.90
2023-05-21T02:30:59.921Z,66.60
2023-05-21T02:33:26.704Z,67.10
2023-05-21T02:35:53.493Z,67.30
2023-05-21T02:38:23.338Z,65.90
2023-05-21T02:40:51.102Z,65.80
2023-05-21T02:43:17.834Z,66.10
2023-05-21T02:45:44.712Z,65.40
2023-05-21T02:48:11.632Z,65.40
2023-05-21T02:50:38.605Z,64.20
2023-05-21T02:53:06.342Z,63.70
2023-05-21T02:55:33.227Z,64.70
2023-05-21T02:58:00.068Z,62.00
2023-05-21T03:00:26.863Z,61.70
2023-05-21T03:02:53.757Z,61.00
2023-05-21T03:05:20.780Z,61.10
2023-05-21T03:07:47.513Z,61.30
2023-05-21T03:10:14.286Z,60.80
2023-05-21T03:12:41.033Z,60.10
2023-05-21T03:15:08.035Z,60.80
2023-05-21T03:17:34.796Z,60.10
2023-05-21T03:20:01.526Z,60.40
2023-05-21T03:22:28.283Z,58.80
2023-05-21T03:24:55.048Z,57.60
2023-05-21T03:27:21.813Z,56.40
2023-05-21T03:29:48.554Z,55.80
2023-05-21T03:32:15.567Z,54.80
2023-05-21T03:34:42.403Z,54.00
2023-05-21T03:37:09.158Z,53.10
2023-05-21T03:39:35.952Z,52.00
2023-05-21T03:42:02.689Z,52.50
2023-05-21T03:44:32.556Z,51.70
2023-05-21T03:46:59.393Z,50.50
2023-05-21T03:49:26.818Z,48.90
2023-05-21T03:51:54.227Z,48.10
2023-05-21T03:54:21.123Z,45.90
2023-05-21T03:56:47.874Z,45.30
2023-05-21T03:59:14.755Z,44.50
2023-05-21T04:01:41.549Z,44.10
2023-05-21T04:04:08.350Z,44.00
2023-05-21T04:06:35.229Z,44.70
2023-05-21T04:09:01.941Z,45.80
2023-05-21T04:11:28.656Z,46.10
2023-05-21T04:13:55.426Z,46.50
2023-05-21T04:16:22.534Z,47.80
2023-05-21T04:18:49.384Z,47.60
2023-05-21T04:21:16.381Z,47.20
2023-05-21T04:23:43.120Z,47.20
2023-05-21T04:26:09.851Z,46.80
2023-05-21T04:28:36.887Z,47.10
2023-05-21T04:31:03.683Z,47.20
2023-05-21T04:33:30.493Z,48.30
2023-05-21T04:35:57.951Z,45.50
2023-05-21T04:38:26.079Z,47.20
2023-05-21T04:40:53.116Z,46.60
2023-05-21T04:43:26.605Z,47.80
2023-05-21T04:45:55.737Z,46.50
2023-05-21T04:48:27.031Z,46.00
2023-05-21T04:50:54.135Z,45.70
2023-05-21T04:53:20.998Z,43.80
2023-05-21T04:55:48.120Z,43.40
2023-05-21T04:58:17.849Z,43.40
2023-05-21T05:00:46.895Z,43.00
2023-05-21T05:03:14.808Z,42.50
2023-05-21T05:05:42.106Z,44.60
2023-05-21T05:08:08.965Z,43.70
2023-05-21T05:10:36.251Z,42.60
2023-05-21T05:13:03.069Z,42.70
2023-05-21T05:15:29.967Z,43.80
2023-05-21T05:17:56.802Z,42.70
2023-05-21T05:20:23.675Z,41.50
2023-05-21T05:22:50.511Z,41.90
2023-05-21T05:25:17.298Z,41.30
2023-05-21T05:27:44.204Z,41.20
2023-05-21T05:30:11.266Z,40.60
2023-05-21T05:32:38.279Z,40.40
2023-05-21T05:35:05.445Z,40.20
2023-05-21T05:37:33.256Z,39.30
2023-05-21T05:40:00.009Z,39.80
2023-05-21T05:42:26.803Z,38.60
2023-05-21T05:44:53.594Z,38.90
2023-05-21T05:47:21.911Z,37.90
2023-05-21T05:49:48.825Z,38.20
2023-05-21T05:52:15.957Z,37.90
2023-05-21T05:54:42.736Z,37.80
2023-05-21T05:57:09.613Z,37.60
2023-05-21T05:59:36.447Z,37.50
2023-05-21T06:02:03.347Z,37.30
2023-05-21T06:04:30.282Z,36.50
2023-05-21T06:07:00.968Z,36.20
2023-05-21T06:09:27.863Z,36.20
2023-05-21T06:11:54.680Z,35.90
2023-05-21T06:14:21.407Z,35.10
2023-05-21T06:16:48.170Z,35.40
2023-05-21T06:19:15.072Z,35.50
2023-05-21T06:21:41.928Z,36.10
2023-05-21T06:24:08.741Z,35.70
2023-05-21T06:26:35.523Z,34.80
2023-05-21T06:29:03.814Z,35.60
2023-05-21T06:31:33.132Z,34.90
2023-05-21T06:34:00.845Z,35.50
2023-05-21T06:36:30.245Z,35.00
2023-05-21T06:38:57.310Z,35.00
2023-05-21T06:41:24.311Z,35.80
2023-05-21T06:43:51.497Z,35.10
2023-05-21T06:46:20.550Z,35.20
2023-05-21T06:48:47.394Z,34.90
2023-05-21T06:51:14.279Z,36.00
2023-05-21T06:53:41.306Z,35.90
2023-05-21T06:56:08.349Z,35.40
2023-05-21T06:58:35.342Z,35.60
2023-05-21T07:01:04.246Z,34.70
2023-05-21T07:03:31.397Z,34.60
2023-05-21T07:05:58.495Z,33.90
2023-05-21T07:08:25.260Z,34.70
2023-05-21T07:10:52.065Z,34.50
2023-05-21T07:13:18.833Z,35.20
2023-05-21T07:15:45.740Z,34.70
2023-05-21T07:18:13.250Z,34.90
2023-05-21T07:20:40.251Z,33.70
2023-05-21T07:23:07.127Z,33.30
2023-05-21T07:25:34.528Z,33.60
2023-05-21T07:28:01.673Z,33.60
2023-05-21T07:30:28.632Z,34.00
2023-05-21T07:32:55.634Z,33.70
2023-05-21T07:35:22.733Z,33.80
2023-05-21T07:37:49.721Z,33.10
2023-05-21T07:40:16.752Z,32.40
2023-05-21T07:42:43.539Z,32.70
2023-05-21T07:45:10.485Z,32.60
2023-05-21T07:47:37.272Z,32.70
2023-05-21T07:50:04.348Z,33.00
2023-05-21T07:52:31.342Z,33.00
2023-05-21T07:54:58.268Z,32.90
2023-05-21T07:57:25.141Z,32.80
2023-05-21T07:59:52.005Z,33.10
2023-05-21T08:02:19.137Z,32.40
2023-05-21T08:04:45.989Z,32.40
2023-05-21T08:07:13.813Z,31.90
2023-05-21T08:09:40.794Z,32.00
2023-05-21T08:12:08.172Z,31.40
2023-05-21T08:14:35.201Z,31.60
2023-05-21T08:17:03.180Z,31.70
2023-05-21T08:19:30.119Z,32.20
2023-05-21T08:21:57.136Z,32.10
2023-05-21T08:24:24.381Z,32.30
2023-05-21T08:26:51.327Z,32.20
2023-05-21T08:29:18.205Z,32.30
2023-05-21T08:31:45.096Z,32.20
2023-05-21T08:34:11.888Z,31.80
2023-05-21T08:36:38.886Z,31.80
2023-05-21T08:39:05.724Z,32.60
2023-05-21T08:41:35.232Z,31.40
2023-05-21T08:44:02.435Z,32.20
2023-05-21T08:46:36.772Z,31.70
2023-05-21T08:49:04.011Z,31.60
2023-05-21T08:51:31.481Z,31.70
2023-05-21T08:54:01.766Z,30.90
2023-05-21T08:56:31.412Z,30.70
2023-05-21T08:58:59.820Z,30.50
2023-05-21T09:01:27.676Z,30.50
2023-05-21T09:04:04.816Z,30.50
2023-05-21T09:06:36.546Z,29.70
2023-05-21T09:09:22.081Z,29.70
2023-05-21T09:11:49.544Z,29.00
2023-05-21T09:14:17.448Z,28.90
2023-05-21T09:16:48.384Z,29.00
2023-05-21T09:19:15.468Z,29.20
2023-05-21T09:21:42.385Z,29.30
2023-05-21T09:24:10.939Z,29.30
2023-05-21T09:26:37.942Z,29.60
2023-05-21T09:29:04.768Z,29.90
2023-05-21T09:31:33.017Z,29.40
2023-05-21T09:34:00.169Z,29.20
2023-05-21T09:36:29.386Z,29.30
2023-05-21T09:38:58.423Z,29.10
2023-05-21T09:41:33.725Z,29.20
2023-05-21T09:44:04.740Z,29.50
2023-05-21T09:46:41.708Z,29.20
2023-05-21T09:49:24.998Z,29.50
2023-05-21T09:52:01.197Z,29.40
2023-05-21T09:54:35.317Z,29.10
2023-05-21T09:57:04.916Z,29.60
2023-05-21T09:59:40.976Z,29.70
2023-05-21T10:02:24.123Z,29.60
2023-05-21T10:04:53.077Z,29.30
2023-05-21T10:07:28.108Z,29.30
2023-05-21T10:09:57.190Z,29.50
2023-05-21T10:12:25.523Z,29.40
2023-05-21T10:15:00.269Z,29.80
2023-05-21T10:17:36.639Z,29.50
2023-05-21T10:20:05.251Z,29.60
2023-05-21T10:22:32.466Z,29.20
2023-05-21T10:25:01.121Z,29.40
2023-05-21T10:27:32.319Z,29.00
2023-05-21T10:30:00.004Z,29.00
2023-05-21T10:32:27.630Z,29.00
2023-05-21T10:34:54.798Z,29.30
2023-05-21T10:37:24.948Z,29.50
2023-05-21T10:39:51.963Z,28.70
2023-05-21T10:42:32.443Z,28.80
2023-05-21T10:45:17.159Z,28.80
2023-05-21T10:47:54.366Z,28.70
2023-05-21T10:50:45.944Z,28.60
2023-05-21T10:53:31.336Z,28.70
2023-05-21T10:56:04.014Z,28.80
2023-05-21T10:58:36.604Z,29.00
2023-05-21T11:01:04.079Z,29.10
2023-05-21T11:03:35.758Z,29.00
2023-05-21T11:06:08.573Z,28.60
2023-05-21T11:08:37.110Z,28.60
2023-05-21T11:11:04.611Z,28.80
2023-05-21T11:13:51.515Z,29.00
2023-05-21T11:16:18.556Z,28.60
2023-05-21T11:18:46.015Z,28.80
2023-05-21T11:21:16.094Z,29.10
2023-05-21T11:23:48.958Z,29.50
2023-05-21T11:26:21.702Z,29.20
2023-05-21T11:29:07.009Z,29.10
2023-05-21T11:31:41.280Z,29.00
2023-05-21T11:34:28.121Z,29.60
2023-05-21T11:37:16.960Z,29.30
2023-05-21T11:39:48.251Z,29.10
2023-05-21T11:42:28.028Z,28.90
2023-05-21T11:44:58.328Z,28.70
2023-05-21T11:47:29.076Z,28.80
2023-05-21T11:49:57.261Z,28.70
2023-05-21T11:52:24.249Z,29.00
2023-05-21T11:54:55.519Z,28.20
2023-05-21T11:57:26.557Z,28.00
2023-05-21T11:59:53.513Z,28.30
2023-05-21T12:02:21.413Z,28.60
2023-05-21T12:04:49.097Z,28.80
2023-05-21T12:07:16.552Z,29.00
2023-05-21T12:09:43.369Z,29.20
2023-05-21T12:12:10.720Z,29.20
2023-05-21T12:14:37.530Z,29.50
2023-05-21T12:17:04.956Z,29.30
2023-05-21T12:19:35.725Z,29.50
2023-05-21T12:22:03.190Z,29.40
2023-05-21T12:24:30.476Z,29.60
2023-05-21T12:27:01.316Z,29.30
2023-05-21T12:29:28.507Z,29.50
2023-05-21T12:31:59.218Z,29.60
2023-05-21T12:34:45.029Z,29.40
2023-05-21T12:37:12.639Z,29.30
2023-05-21T12:39:46.360Z,29.00
2023-05-21T12:42:13.480Z,29.00
2023-05-21T12:44:42.204Z,29.50
2023-05-21T12:47:10.719Z,29.70
2023-05-21T12:49:39.531Z,30.20
2023-05-21T12:52:10.466Z,30.50
2023-05-21T12:54:38.065Z,31.20
2023-05-21T12:57:08.795Z,31.10
2023-05-21T12:59:47.545Z,31.40
2023-05-21T13:02:22.769Z,32.90
2023-05-21T13:04:54.403Z,35.20
2023-05-21T13:07:21.127Z,36.40
2023-05-21T13:09:48.756Z,37.70
2023-05-21T13:12:15.696Z,38.10
2023-05-21T13:14:42.459Z,38.40
2023-05-21T13:17:09.226Z,39.00
2023-05-21T13:19:36.005Z,39.00
2023-05-21T13:22:03.423Z,39.20
2023-05-21T13:24:30.166Z,39.50
2023-05-21T13:26:56.890Z,39.70
2023-05-21T13:29:23.660Z,40.00
2023-05-21T13:31:50.466Z,39.70
2023-05-21T13:34:17.254Z,39.80
2023-05-21T13:36:44.005Z,40.00
2023-05-21T13:39:10.812Z,40.30
2023-05-21T13:41:37.598Z,40.30
2023-05-21T13:44:04.418Z,40.80
2023-05-21T13:46:31.515Z,40.90
2023-05-21T13:48:58.422Z,41.60
2023-05-21T13:51:37.849Z,41.80
2023-05-21T13:54:06.055Z,41.50
2023-05-21T13:56:33.913Z,42.10
2023-05-21T13:59:01.415Z,42.40
2023-05-21T14:01:28.425Z,42.60
2023-05-21T14:03:55.322Z,42.30
2023-05-21T14:06:22.205Z,42.80
2023-05-21T14:08:49.065Z,42.90
2023-05-21T14:11:15.827Z,42.20
2023-05-21T14:13:43.311Z,41.80
2023-05-21T14:16:10.157Z,41.70
2023-05-21T14:18:36.941Z,41.30
2023-05-21T14:21:03.771Z,41.50
2023-05-21T14:23:30.623Z,41.80
2023-05-21T14:25:57.321Z,41.60
2023-05-21T14:28:24.079Z,42.20
2023-05-21T14:30:50.876Z,42.50
2023-05-21T14:33:17.668Z,42.20
2023-05-21T14:35:44.604Z,41.70
2023-05-21T14:38:11.354Z,41.90
2023-05-21T14:40:38.092Z,42.00
2023-05-21T14:43:05.748Z,41.20
2023-05-21T14:45:35.702Z,41.20
2023-05-21T14:48:08.243Z,42.00
2023-05-21T14:50:35.947Z,42.60
2023-05-21T14:53:09.489Z,43.10
2023-05-21T14:55:37.195Z,43.10
2023-05-21T14:58:07.075Z,42.90
2023-05-21T15:00:34.307Z,42.90
2023-05-21T15:03:01.293Z,43.30
2023-05-21T15:05:29.218Z,42.90
2023-05-21T15:07:59.195Z,43.10
2023-05-21T15:10:27.045Z,43.20
2023-05-21T15:12:53.948Z,43.40
2023-05-21T15:15:21.211Z,44.00
2023-05-21T15:17:48.566Z,43.90
2023-05-21T15:20:15.422Z,44.30
2023-05-21T15:22:42.669Z,44.70
2023-05-21T15:25:09.585Z,44.60
2023-05-21T15:27:36.381Z,45.20
2023-05-21T15:30:03.936Z,45.60
2023-05-21T15:32:31.445Z,46.00
2023-05-21T15:34:58.643Z,46.20
2023-05-21T15:37:26.559Z,46.50
2023-05-21T15:39:53.978Z,46.60
2023-05-21T15:42:20.780Z,46.50
2023-05-21T15:44:48.177Z,46.90
2023-05-21T15:47:15.987Z,46.90
2023-05-21T15:49:43.022Z,46.60
2023-05-21T15:52:09.748Z,46.70
2023-05-21T15:54:36.565Z,47.10
2023-05-21T15:57:03.348Z,48.30
2023-05-21T15:59:30.176Z,48.30
2023-05-21T16:01:56.967Z,48.50
2023-05-21T16:04:23.792Z,48.70
2023-05-21T16:06:50.622Z,49.00
2023-05-21T16:09:17.721Z,49.50
2023-05-21T16:11:44.848Z,49.60
2023-05-21T16:14:11.955Z,49.30
2023-05-21T16:16:38.994Z,49.40
2023-05-21T16:19:05.939Z,49.50
2023-05-21T16:21:33.022Z,49.60
2023-05-21T16:24:02.087Z,49.70
2023-05-21T16:26:28.856Z,49.90
2023-05-21T16:28:55.647Z,50.10
2023-05-21T16:31:22.733Z,50.50
2023-05-21T16:33:49.583Z,50.70
2023-05-21T16:36:17.927Z,50.80
2023-05-21T16:38:44.900Z,50.70
2023-05-21T16:41:11.720Z,50.70
2023-05-21T16:43:38.538Z,50.70
2023-05-21T16:46:05.507Z,50.40
2023-05-21T16:48:32.832Z,50.80
2023-05-21T16:50:59.951Z,50.50
2023-05-21T16:53:27.321Z,50.60
2023-05-21T16:55:54.220Z,50.50
2023-05-21T16:58:21.216Z,50.70
2023-05-21T17:00:48.069Z,50.80
2023-05-21T17:03:16.435Z,50.80
2023-05-21T17:05:43.346Z,51.30
2023-05-21T17:08:10.296Z,51.70
2023-05-21T17:10:37.103Z,51.90
2023-05-21T17:13:17.665Z,52.40
2023-05-21T17:15:48.108Z,52.40
2023-05-21T17:18:14.938Z,53.10
2023-05-21T17:20:43.701Z,53.40
2023-05-21T17:23:11.707Z,54.00
2023-05-21T17:25:39.065Z,54.20
2023-05-21T17:28:06.441Z,54.40
2023-05-21T17:30:33.450Z,54.70
2023-05-21T17:33:02.230Z,54.70
2023-05-21T17:35:29.144Z,55.10
2023-05-21T17:37:55.980Z,55.50
2023-05-21T17:40:24.673Z,55.30
2023-05-21T17:42:52.349Z,55.50
2023-05-21T17:45:19.228Z,55.80
2023-05-21T17:47:46.335Z,56.20
2023-05-21T17:50:13.236Z,56.10
2023-05-21T17:52:40.065Z,56.30
2023-05-21T17:55:07.771Z,56.20
2023-05-21T17:57:35.992Z,56.50
2023-05-21T18:00:05.103Z,56.90
2023-05-21T18:02:31.999Z,57.00
2023-05-21T18:04:58.808Z,57.50
2023-05-21T18:07:25.779Z,57.70
2023-05-21T18:09:52.581Z,57.80
2023-05-21T18:12:19.447Z,58.30
2023-05-21T18:14:46.238Z,58.90
2023-05-21T18:17:13.084Z,59.50
2023-05-21T18:19:39.827Z,59.80
2023-05-21T18:22:06.744Z,59.80
2023-05-21T18:24:33.758Z,60.60
2023-05-21T18:27:00.623Z,60.90
2023-05-21T18:29:27.453Z,61.30
2023-05-21T18:31:54.316Z,61.30
2023-05-21T18:34:21.081Z,61.70
2023-05-21T18:36:48.268Z,62.80
2023-05-21T18:39:15.191Z,62.80
2023-05-21T18:41:41.965Z,62.40
2023-05-21T18:44:08.985Z,62.60
2023-05-21T18:46:36.150Z,63.40
2023-05-21T18:49:03.024Z,63.50
2023-05-21T18:51:29.964Z,63.90
2023-05-21T18:53:56.751Z,63.80
2023-05-21T18:56:23.463Z,64.00
2023-05-21T18:58:50.317Z,64.60
2023-05-21T19:01:18.277Z,64.90
2023-05-21T19:03:45.215Z,64.90
2023-05-21T19:06:11.999Z,64.70
2023-05-21T19:08:40.521Z,65.70
2023-05-21T19:11:07.711Z,66.00
2023-05-21T19:13:34.482Z,66.10
2023-05-21T19:16:03.433Z,66.60
2023-05-21T19:18:31.640Z,66.60
2023-05-21T19:21:00.270Z,65.90
2023-05-21T19:23:27.106Z,66.20
2023-05-21T19:25:53.940Z,66.60
2023-05-21T19:28:20.804Z,66.90
2023-05-21T19:30:47.593Z,65.90
2023-05-21T19:33:14.352Z,65.90
2023-05-21T19:35:43.135Z,65.90
2023-05-21T19:38:10.867Z,66.30
2023-05-21T19:40:38.137Z,64.70
2023-05-21T19:43:05.182Z,64.60
2023-05-21T19:45:31.983Z,66.10
2023-05-21T19:47:59.837Z,64.80
2023-05-21T19:50:28.784Z,63.50
2023-05-21T19:52:57.209Z,63.90
2023-05-21T19:55:24.864Z,63.70
2023-05-21T19:57:51.885Z,63.80
2023-05-21T20:00:20.879Z,64.40
2023-05-21T20:02:47.780Z,65.30
2023-05-21T20:05:14.599Z,65.50
2023-05-21T20:07:41.373Z,66.80
2023-05-21T20:10:08.959Z,66.60
2023-05-21T20:12:35.982Z,67.20
2023-05-21T20:15:03.430Z,67.20
2023-05-21T20:17:30.566Z,67.40
2023-05-21T20:19:59.121Z,68.20
2023-05-21T20:22:25.973Z,68.00
2023-05-21T20:24:53.029Z,68.50
2023-05-21T20:27:20.066Z,69.70
2023-05-21T20:29:47.087Z,69.90
2023-05-21T20:32:13.934Z,70.50
2023-05-21T20:34:54.346Z,71.10
2023-05-21T20:37:28.278Z,72.10
2023-05-21T20:39:57.948Z,72.40
2023-05-21T20:42:28.404Z,72.40
2023-05-21T20:44:55.536Z,72.40
2023-05-21T20:47:23.433Z,72.70
2023-05-21T20:49:53.676Z,73.60
2023-05-21T20:52:20.688Z,74.30
2023-05-21T20:54:48.920Z,74.90
2023-05-21T20:57:16.023Z,75.50
2023-05-21T20:59:43.327Z,75.50
2023-05-21T21:02:11.676Z,75.90
2023-05-21T21:04:39.886Z,76.40
2023-05-21T21:07:08.145Z,76.20
2023-05-21T21:09:35.030Z,76.40
2023-05-21T21:12:11.405Z,76.60
2023-05-21T21:14:48.269Z,76.80
2023-05-21T21:17:17.549Z,76.50
2023-05-21T21:19:44.302Z,76.50
2023-05-21T21:22:12.111Z,76.80
2023-05-21T21:24:38.897Z,76.50
2023-05-21T21:27:06.083Z,76.40
2023-05-21T21:29:32.876Z,76.90
2023-05-21T21:31:59.696Z,77.10
2023-05-21T21:34:26.483Z,76.10
2023-05-21T21:36:53.880Z,76.10
2023-05-21T21:39:20.800Z,76.00
2023-05-21T21:41:47.669Z,75.30
2023-05-21T21:44:14.435Z,76.30
2023-05-21T21:46:41.186Z,76.40
2023-05-21T21:49:08.083Z,76.50
2023-05-21T21:51:35.345Z,76.30
2023-05-21T21:54:02.307Z,76.10
2023-05-21T21:56:29.498Z,76.20
2023-05-21T21:58:56.364Z,76.10
2023-05-21T22:01:23.154Z,76.70
2023-05-21T22:03:50.174Z,76.70
2023-05-21T22:06:17.015Z,76.50
2023-05-21T22:08:43.886Z,76.70
2023-05-21T22:11:11.060Z,76.80
2023-05-21T22:13:38.511Z,76.60
2023-05-21T22:16:05.500Z,76.40
2023-05-21T22:18:40.933Z,76.90
2023-05-21T22:21:10.166Z,76.80
2023-05-21T22:23:37.559Z,76.50
2023-05-21T22:26:04.462Z,76.60
2023-05-21T22:28:31.376Z,76.70
2023-05-21T22:30:58.665Z,76.50
2023-05-21T22:33:26.639Z,74.90
2023-05-21T22:35:54.469Z,74.90
2023-05-21T22:38:21.589Z,74.10
2023-05-21T22:40:48.500Z,73.80
2023-05-21T22:43:15.345Z,73.50
2023-05-21T22:45:42.317Z,73.40
2023-05-21T22:48:09.640Z,73.30
2023-05-21T22:50:38.416Z,73.50
2023-05-21T22:53:06.116Z,73.90
2023-05-21T22:55:32.970Z,74.10
2023-05-21T22:57:59.791Z,73.90
2023-05-21T23:00:26.886Z,73.70
2023-05-21T23:02:54.721Z,73.60
2023-05-21T23:05:21.863Z,73.80
2023-05-21T23:07:48.674Z,73.40
